sensor_id;sensor_type;location;lat;lon;timestamp;temperature;humidity
7046;DHT22;3564;53.326;10.356;2023-09-19T00:01:34;20.10;99.90
7046;DHT22;3564;53.326;10.356;2023-09-19T00:04:00;20.10;99.90
7046;DHT22;3564;53.326;10.356;2023-09-19T00:06:29;20.00;99.90
7046;DHT22;3564;53.326;10.356;2023-09-19T00:08:57;20.00;99.90
7046;DHT22;3564;53.326;10.356;2023-09-19T00:11:24;20.00;99.90
7046;DHT22;3564;53.326;10.356;2023-09-19T00:13:52;20.00;99.90
7046;DHT22;3564;53.326;10.356;2023-09-19T00:16:17;19.90;99.90
7046;DHT22;3564;53.326;10.356;2023-09-19T00:18:45;19.90;99.90
7046;DHT22;3564;53.326;10.356;2023-09-19T00:21:11;19.90;99.90
7046;DHT22;3564;53.326;10.356;2023-09-19T00:23:37;19.90;99.90
7046;DHT22;3564;53.326;10.356;2023-09-19T00:26:02;19.90;99.90
7046;DHT22;3564;53.326;10.356;2023-09-19T00:28:29;19.90;99.90
7046;DHT22;3564;53.326;10.356;2023-09-19T00:30:55;19.80;99.90
7046;DHT22;3564;53.326;10.356;2023-09-19T00:33:21;19.80;99.90
7046;DHT22;3564;53.326;10.356;2023-09-19T00:35:54;19.80;99.90
7046;DHT22;3564;53.326;10.356;2023-09-19T00:38:22;19.80;99.90
7046;DHT22;3564;53.326;10.356;2023-09-19T00:40:52;19.80;99.90
7046;DHT22;3564;53.326;10.356;2023-09-19T00:43:18;19.80;99.90
7046;DHT22;3564;53.326;10.356;2023-09-19T00:45:46;19.70;99.90
7046;DHT22;3564;53.326;10.356;2023-09-19T00:48:14;19.80;99.90
7046;DHT22;3564;53.326;10.356;2023-09-19T00:50:43;19.70;99.90
7046;DHT22;3564;53.326;10.356;2023-09-19T00:53:09;19.70;99.90
7046;DHT22;3564;53.326;10.356;2023-09-19T00:55:40;19.80;99.90
7046;DHT22;3564;53.326;10.356;2023-09-19T00:58:10;19.70;99.90
7046;DHT22;3564;53.326;10.356;2023-09-19T01:00:36;19.70;99.90
7046;DHT22;3564;53.326;10.356;2023-09-19T01:03:03;19.70;99.90
7046;DHT22;3564;53.326;10.356;2023-09-19T01:05:29;19.70;99.90
7046;DHT22;3564;53.326;10.356;2023-09-19T01:07:55;19.70;99.90
7046;DHT22;3564;53.326;10.356;2023-09-19T01:10:22;19.60;99.90
7046;DHT22;3564;53.326;10.356;2023-09-19T01:18:40;19.60;99.90
7046;DHT22;3564;53.326;10.356;2023-09-19T01:21:27;19.60;99.90
7046;DHT22;3564;53.326;10.356;2023-09-19T01:29:50;19.60;99.90
7046;DHT22;3564;53.326;10.356;2023-09-19T01:32:21;19.50;99.90
7046;DHT22;3564;53.326;10.356;2023-09-19T01:35:10;19.50;99.90
7046;DHT22;3564;53.326;10.356;2023-09-19T01:37:39;19.50;99.90
7046;DHT22;3564;53.326;10.356;2023-09-19T01:40:10;19.40;99.90
7046;DHT22;3564;53.326;10.356;2023-09-19T01:42:41;19.40;99.90
7046;DHT22;3564;53.326;10.356;2023-09-19T01:47:55;19.50;99.90
7046;DHT22;3564;53.326;10.356;2023-09-19T01:50:46;19.50;99.90
7046;DHT22;3564;53.326;10.356;2023-09-19T01:53:23;19.50;99.90
7046;DHT22;3564;53.326;10.356;2023-09-19T01:55:51;19.50;99.90
7046;DHT22;3564;53.326;10.356;2023-09-19T01:58:33;19.50;99.90
7046;DHT22;3564;53.326;10.356;2023-09-19T02:01:01;19.50;99.90
7046;DHT22;3564;53.326;10.356;2023-09-19T02:03:28;19.40;99.90
7046;DHT22;3564;53.326;10.356;2023-09-19T02:05:54;19.40;99.90
7046;DHT22;3564;53.326;10.356;2023-09-19T02:08:21;19.30;99.90
7046;DHT22;3564;53.326;10.356;2023-09-19T02:10:51;19.40;99.90
7046;DHT22;3564;53.326;10.356;2023-09-19T02:13:19;19.40;99.90
7046;DHT22;3564;53.326;10.356;2023-09-19T02:15:45;19.40;99.90
7046;DHT22;3564;53.326;10.356;2023-09-19T02:18:12;19.30;99.90
7046;DHT22;3564;53.326;10.356;2023-09-19T02:20:38;19.30;99.90
7046;DHT22;3564;53.326;10.356;2023-09-19T02:23:05;19.20;99.90
7046;DHT22;3564;53.326;10.356;2023-09-19T02:25:31;19.20;99.90
7046;DHT22;3564;53.326;10.356;2023-09-19T02:27:57;19.30;99.90
7046;DHT22;3564;53.326;10.356;2023-09-19T02:30:25;19.30;99.90
7046;DHT22;3564;53.326;10.356;2023-09-19T02:32:51;19.30;99.90
7046;DHT22;3564;53.326;10.356;2023-09-19T02:35:17;19.30;99.90
7046;DHT22;3564;53.326;10.356;2023-09-19T02:37:46;19.20;99.90
7046;DHT22;3564;53.326;10.356;2023-09-19T02:40:11;19.20;99.90
7046;DHT22;3564;53.326;10.356;2023-09-19T02:42:55;19.20;99.90
7046;DHT22;3564;53.326;10.356;2023-09-19T02:45:21;19.20;99.90
7046;DHT22;3564;53.326;10.356;2023-09-19T02:47:48;19.10;99.90
7046;DHT22;3564;53.326;10.356;2023-09-19T02:50:15;19.20;99.90
7046;DHT22;3564;53.326;10.356;2023-09-19T02:53:01;19.10;99.90
7046;DHT22;3564;53.326;10.356;2023-09-19T02:55:27;19.20;99.90
7046;DHT22;3564;53.326;10.356;2023-09-19T02:57:53;19.20;99.90
7046;DHT22;3564;53.326;10.356;2023-09-19T03:00:21;19.20;99.90
7046;DHT22;3564;53.326;10.356;2023-09-19T03:02:51;19.30;99.90
7046;DHT22;3564;53.326;10.356;2023-09-19T03:05:19;19.30;99.90
7046;DHT22;3564;53.326;10.356;2023-09-19T03:07:47;19.30;99.90
7046;DHT22;3564;53.326;10.356;2023-09-19T03:10:17;19.30;99.90
7046;DHT22;3564;53.326;10.356;2023-09-19T03:12:43;19.30;99.90
7046;DHT22;3564;53.326;10.356;2023-09-19T03:15:09;19.30;99.90
7046;DHT22;3564;53.326;10.356;2023-09-19T03:17:34;19.20;99.90
7046;DHT22;3564;53.326;10.356;2023-09-19T03:20:01;19.20;99.90
7046;DHT22;3564;53.326;10.356;2023-09-19T03:22:27;19.20;99.90
7046;DHT22;3564;53.326;10.356;2023-09-19T03:24:53;19.30;99.90
7046;DHT22;3564;53.326;10.356;2023-09-19T03:27:19;19.20;99.90
7046;DHT22;3564;53.326;10.356;2023-09-19T03:29:47;19.20;99.90
7046;DHT22;3564;53.326;10.356;2023-09-19T03:32:12;19.20;99.90
7046;DHT22;3564;53.326;10.356;2023-09-19T03:34:38;19.20;99.90
7046;DHT22;3564;53.326;10.356;2023-09-19T03:37:11;19.10;99.90
7046;DHT22;3564;53.326;10.356;2023-09-19T03:39:37;19.10;99.90
7046;DHT22;3564;53.326;10.356;2023-09-19T03:42:02;19.00;99.90
7046;DHT22;3564;53.326;10.356;2023-09-19T03:44:29;19.00;99.90
7046;DHT22;3564;53.326;10.356;2023-09-19T03:46:56;19.00;99.90
7046;DHT22;3564;53.326;10.356;2023-09-19T03:49:24;19.00;99.90
7046;DHT22;3564;53.326;10.356;2023-09-19T03:51:50;19.00;99.90
7046;DHT22;3564;53.326;10.356;2023-09-19T03:54:15;19.00;99.90
7046;DHT22;3564;53.326;10.356;2023-09-19T03:56:44;19.00;99.90
7046;DHT22;3564;53.326;10.356;2023-09-19T03:59:11;19.00;99.90
7046;DHT22;3564;53.326;10.356;2023-09-19T04:01:37;18.80;99.90
7046;DHT22;3564;53.326;10.356;2023-09-19T04:04:03;18.80;99.90
7046;DHT22;3564;53.326;10.356;2023-09-19T04:06:49;18.80;99.90
7046;DHT22;3564;53.326;10.356;2023-09-19T04:09:14;18.80;99.90
7046;DHT22;3564;53.326;10.356;2023-09-19T04:11:40;18.80;99.90
7046;DHT22;3564;53.326;10.356;2023-09-19T04:14:05;18.70;99.90
7046;DHT22;3564;53.326;10.356;2023-09-19T04:16:31;18.70;99.90
7046;DHT22;3564;53.326;10.356;2023-09-19T04:18:56;18.60;99.90
7046;DHT22;3564;53.326;10.356;2023-09-19T04:21:22;18.60;99.90
7046;DHT22;3564;53.326;10.356;2023-09-19T04:23:47;18.60;99.90
7046;DHT22;3564;53.326;10.356;2023-09-19T04:26:13;18.70;99.90
7046;DHT22;3564;53.326;10.356;2023-09-19T04:28:38;18.70;99.90
7046;DHT22;3564;53.326;10.356;2023-09-19T04:31:05;18.60;99.90
7046;DHT22;3564;53.326;10.356;2023-09-19T04:33:30;18.50;99.90
7046;DHT22;3564;53.326;10.356;2023-09-19T04:35:56;18.60;99.90
7046;DHT22;3564;53.326;10.356;2023-09-19T04:38:22;18.60;99.90
7046;DHT22;3564;53.326;10.356;2023-09-19T04:40:48;18.60;99.90
7046;DHT22;3564;53.326;10.356;2023-09-19T04:43:13;18.50;99.90
7046;DHT22;3564;53.326;10.356;2023-09-19T04:45:41;18.50;99.90
7046;DHT22;3564;53.326;10.356;2023-09-19T04:48:06;18.50;99.90
7046;DHT22;3564;53.326;10.356;2023-09-19T04:50:34;18.50;99.90
7046;DHT22;3564;53.326;10.356;2023-09-19T04:53:00;18.50;99.90
7046;DHT22;3564;53.326;10.356;2023-09-19T04:55:26;18.40;99.90
7046;DHT22;3564;53.326;10.356;2023-09-19T04:57:52;18.40;99.90
7046;DHT22;3564;53.326;10.356;2023-09-19T05:00:20;18.40;99.90
7046;DHT22;3564;53.326;10.356;2023-09-19T05:02:55;18.40;99.90
7046;DHT22;3564;53.326;10.356;2023-09-19T05:05:22;18.40;99.90
7046;DHT22;3564;53.326;10.356;2023-09-19T05:07:49;18.40;99.90
7046;DHT22;3564;53.326;10.356;2023-09-19T05:10:16;18.40;99.90
7046;DHT22;3564;53.326;10.356;2023-09-19T05:12:43;18.40;99.90
7046;DHT22;3564;53.326;10.356;2023-09-19T05:15:12;18.40;99.90
7046;DHT22;3564;53.326;10.356;2023-09-19T05:17:37;18.40;99.90
7046;DHT22;3564;53.326;10.356;2023-09-19T05:20:05;18.40;99.90
7046;DHT22;3564;53.326;10.356;2023-09-19T05:22:57;18.30;99.90
7046;DHT22;3564;53.326;10.356;2023-09-19T05:25:23;18.40;99.90
7046;DHT22;3564;53.326;10.356;2023-09-19T05:27:53;18.30;99.90
7046;DHT22;3564;53.326;10.356;2023-09-19T05:30:19;18.30;99.90
7046;DHT22;3564;53.326;10.356;2023-09-19T05:32:45;18.30;99.90
7046;DHT22;3564;53.326;10.356;2023-09-19T05:35:11;18.20;99.90
7046;DHT22;3564;53.326;10.356;2023-09-19T05:37:38;18.30;99.90
7046;DHT22;3564;53.326;10.356;2023-09-19T05:40:04;18.20;99.90
7046;DHT22;3564;53.326;10.356;2023-09-19T05:42:34;18.10;99.90
7046;DHT22;3564;53.326;10.356;2023-09-19T05:45:00;18.10;99.90
7046;DHT22;3564;53.326;10.356;2023-09-19T05:47:26;18.10;99.90
7046;DHT22;3564;53.326;10.356;2023-09-19T05:49:51;18.10;99.90
7046;DHT22;3564;53.326;10.356;2023-09-19T05:52:17;18.00;99.90
7046;DHT22;3564;53.326;10.356;2023-09-19T05:54:43;18.00;99.90
7046;DHT22;3564;53.326;10.356;2023-09-19T05:57:09;18.00;99.90
7046;DHT22;3564;53.326;10.356;2023-09-19T05:59:37;18.00;99.90
7046;DHT22;3564;53.326;10.356;2023-09-19T06:02:05;18.00;99.90
7046;DHT22;3564;53.326;10.356;2023-09-19T06:04:31;18.00;99.90
7046;DHT22;3564;53.326;10.356;2023-09-19T06:06:57;18.00;99.90
7046;DHT22;3564;53.326;10.356;2023-09-19T06:09:23;18.00;99.90
7046;DHT22;3564;53.326;10.356;2023-09-19T06:11:49;17.90;99.90
7046;DHT22;3564;53.326;10.356;2023-09-19T06:14:15;17.90;99.90
7046;DHT22;3564;53.326;10.356;2023-09-19T06:16:43;18.00;99.90
7046;DHT22;3564;53.326;10.356;2023-09-19T06:19:08;18.00;99.90
7046;DHT22;3564;53.326;10.356;2023-09-19T06:21:35;18.00;99.90
7046;DHT22;3564;53.326;10.356;2023-09-19T06:24:01;18.00;99.90
7046;DHT22;3564;53.326;10.356;2023-09-19T06:26:28;18.00;99.90
7046;DHT22;3564;53.326;10.356;2023-09-19T06:28:54;18.00;99.90
7046;DHT22;3564;53.326;10.356;2023-09-19T06:31:21;18.10;99.90
7046;DHT22;3564;53.326;10.356;2023-09-19T06:33:48;18.10;99.90
7046;DHT22;3564;53.326;10.356;2023-09-19T06:36:14;18.10;99.90
7046;DHT22;3564;53.326;10.356;2023-09-19T06:38:40;18.20;99.90
7046;DHT22;3564;53.326;10.356;2023-09-19T06:41:06;18.20;99.90
7046;DHT22;3564;53.326;10.356;2023-09-19T06:43:34;18.30;99.90
7046;DHT22;3564;53.326;10.356;2023-09-19T06:46:02;18.30;99.90
7046;DHT22;3564;53.326;10.356;2023-09-19T06:48:29;18.30;99.90
7046;DHT22;3564;53.326;10.356;2023-09-19T06:50:58;18.40;99.90
7046;DHT22;3564;53.326;10.356;2023-09-19T06:53:32;18.40;99.90
7046;DHT22;3564;53.326;10.356;2023-09-19T06:55:58;18.40;99.90
7046;DHT22;3564;53.326;10.356;2023-09-19T06:58:24;18.40;99.90
7046;DHT22;3564;53.326;10.356;2023-09-19T07:00:49;18.50;99.90
7046;DHT22;3564;53.326;10.356;2023-09-19T07:03:19;18.50;99.90
7046;DHT22;3564;53.326;10.356;2023-09-19T07:05:50;18.40;99.90
7046;DHT22;3564;53.326;10.356;2023-09-19T07:08:16;18.40;99.90
7046;DHT22;3564;53.326;10.356;2023-09-19T07:10:42;18.40;99.90
7046;DHT22;3564;53.326;10.356;2023-09-19T07:13:14;18.50;99.90
7046;DHT22;3564;53.326;10.356;2023-09-19T07:15:43;18.50;99.90
7046;DHT22;3564;53.326;10.356;2023-09-19T07:18:13;18.60;99.90
7046;DHT22;3564;53.326;10.356;2023-09-19T07:20:41;18.60;99.90
7046;DHT22;3564;53.326;10.356;2023-09-19T07:23:11;18.60;99.90
7046;DHT22;3564;53.326;10.356;2023-09-19T07:25:39;18.60;99.90
7046;DHT22;3564;53.326;10.356;2023-09-19T07:28:05;18.60;99.90
7046;DHT22;3564;53.326;10.356;2023-09-19T07:30:31;18.70;99.90
7046;DHT22;3564;53.326;10.356;2023-09-19T07:32:56;18.60;99.90
7046;DHT22;3564;53.326;10.356;2023-09-19T07:35:22;18.60;99.90
7046;DHT22;3564;53.326;10.356;2023-09-19T07:37:48;18.70;99.90
7046;DHT22;3564;53.326;10.356;2023-09-19T07:40:18;18.70;99.90
7046;DHT22;3564;53.326;10.356;2023-09-19T07:42:44;18.70;99.90
7046;DHT22;3564;53.326;10.356;2023-09-19T07:45:12;18.70;99.90
7046;DHT22;3564;53.326;10.356;2023-09-19T07:47:43;18.70;99.90
7046;DHT22;3564;53.326;10.356;2023-09-19T07:50:10;18.70;99.90
7046;DHT22;3564;53.326;10.356;2023-09-19T07:52:37;18.80;99.90
7046;DHT22;3564;53.326;10.356;2023-09-19T07:55:05;18.80;99.90
7046;DHT22;3564;53.326;10.356;2023-09-19T07:57:35;18.80;99.90
7046;DHT22;3564;53.326;10.356;2023-09-19T08:00:01;18.90;99.90
7046;DHT22;3564;53.326;10.356;2023-09-19T08:02:33;18.80;99.90
7046;DHT22;3564;53.326;10.356;2023-09-19T08:04:59;18.90;99.90
7046;DHT22;3564;53.326;10.356;2023-09-19T08:07:25;18.90;99.90
7046;DHT22;3564;53.326;10.356;2023-09-19T08:09:52;19.00;99.90
7046;DHT22;3564;53.326;10.356;2023-09-19T08:12:18;18.90;99.90
7046;DHT22;3564;53.326;10.356;2023-09-19T08:14:45;18.90;99.90
7046;DHT22;3564;53.326;10.356;2023-09-19T08:17:12;18.90;99.90
7046;DHT22;3564;53.326;10.356;2023-09-19T08:19:38;19.10;99.90
7046;DHT22;3564;53.326;10.356;2023-09-19T08:22:07;19.20;99.90
7046;DHT22;3564;53.326;10.356;2023-09-19T08:24:35;19.20;99.90
7046;DHT22;3564;53.326;10.356;2023-09-19T08:27:01;19.20;99.90
7046;DHT22;3564;53.326;10.356;2023-09-19T08:29:30;19.20;99.90
7046;DHT22;3564;53.326;10.356;2023-09-19T08:31:59;19.20;99.90
7046;DHT22;3564;53.326;10.356;2023-09-19T08:34:25;19.20;99.90
7046;DHT22;3564;53.326;10.356;2023-09-19T08:36:54;19.30;99.90
7046;DHT22;3564;53.326;10.356;2023-09-19T08:39:23;19.40;99.90
7046;DHT22;3564;53.326;10.356;2023-09-19T08:41:49;19.50;99.90
7046;DHT22;3564;53.326;10.356;2023-09-19T08:44:15;19.50;99.90
7046;DHT22;3564;53.326;10.356;2023-09-19T08:46:41;19.60;99.90
7046;DHT22;3564;53.326;10.356;2023-09-19T08:49:27;19.60;99.90
7046;DHT22;3564;53.326;10.356;2023-09-19T08:52:16;19.60;99.90
7046;DHT22;3564;53.326;10.356;2023-09-19T08:54:48;19.60;99.90
7046;DHT22;3564;53.326;10.356;2023-09-19T08:57:17;19.50;99.90
7046;DHT22;3564;53.326;10.356;2023-09-19T08:59:48;19.50;99.90
7046;DHT22;3564;53.326;10.356;2023-09-19T09:02:18;19.60;99.90
7046;DHT22;3564;53.326;10.356;2023-09-19T09:04:47;19.60;99.90
7046;DHT22;3564;53.326;10.356;2023-09-19T09:07:14;19.60;99.90
7046;DHT22;3564;53.326;10.356;2023-09-19T09:09:41;19.70;99.90
7046;DHT22;3564;53.326;10.356;2023-09-19T09:12:11;19.80;99.90
7046;DHT22;3564;53.326;10.356;2023-09-19T09:14:44;19.90;99.90
7046;DHT22;3564;53.326;10.356;2023-09-19T09:17:18;20.00;99.90
7046;DHT22;3564;53.326;10.356;2023-09-19T09:19:47;20.00;99.90
7046;DHT22;3564;53.326;10.356;2023-09-19T09:22:13;20.10;99.90
7046;DHT22;3564;53.326;10.356;2023-09-19T09:24:52;20.00;99.90
7046;DHT22;3564;53.326;10.356;2023-09-19T09:27:20;20.00;99.90
7046;DHT22;3564;53.326;10.356;2023-09-19T09:29:47;20.00;99.90
7046;DHT22;3564;53.326;10.356;2023-09-19T09:32:30;20.00;99.90
7046;DHT22;3564;53.326;10.356;2023-09-19T09:35:00;20.10;99.90
7046;DHT22;3564;53.326;10.356;2023-09-19T09:37:28;20.20;99.90
7046;DHT22;3564;53.326;10.356;2023-09-19T09:39:56;20.20;99.90
7046;DHT22;3564;53.326;10.356;2023-09-19T09:42:43;20.20;99.90
7046;DHT22;3564;53.326;10.356;2023-09-19T09:45:22;20.30;99.90
7046;DHT22;3564;53.326;10.356;2023-09-19T09:48:04;20.30;99.90
7046;DHT22;3564;53.326;10.356;2023-09-19T09:50:46;20.30;99.90
7046;DHT22;3564;53.326;10.356;2023-09-19T09:53:26;20.30;99.60
7046;DHT22;3564;53.326;10.356;2023-09-19T09:56:07;20.30;99.90
7046;DHT22;3564;53.326;10.356;2023-09-19T09:58:36;20.30;99.90
7046;DHT22;3564;53.326;10.356;2023-09-19T10:01:03;20.30;99.90
7046;DHT22;3564;53.326;10.356;2023-09-19T10:03:37;20.30;99.60
7046;DHT22;3564;53.326;10.356;2023-09-19T10:06:13;20.30;99.60
7046;DHT22;3564;53.326;10.356;2023-09-19T10:09:10;20.30;99.30
7046;DHT22;3564;53.326;10.356;2023-09-19T10:11:48;20.50;99.40
7046;DHT22;3564;53.326;10.356;2023-09-19T10:14:26;20.60;99.20
7046;DHT22;3564;53.326;10.356;2023-09-19T10:16:56;20.60;99.00
7046;DHT22;3564;53.326;10.356;2023-09-19T10:19:30;20.70;99.20
7046;DHT22;3564;53.326;10.356;2023-09-19T10:22:00;20.80;98.90
7046;DHT22;3564;53.326;10.356;2023-09-19T10:24:28;20.90;98.50
7046;DHT22;3564;53.326;10.356;2023-09-19T10:26:55;20.90;98.80
7046;DHT22;3564;53.326;10.356;2023-09-19T10:29:21;21.00;99.20
7046;DHT22;3564;53.326;10.356;2023-09-19T10:31:48;21.00;99.30
7046;DHT22;3564;53.326;10.356;2023-09-19T10:34:17;21.20;99.50
7046;DHT22;3564;53.326;10.356;2023-09-19T10:36:46;21.10;98.70
7046;DHT22;3564;53.326;10.356;2023-09-19T10:39:16;21.10;98.70
7046;DHT22;3564;53.326;10.356;2023-09-19T10:41:53;21.10;99.00
7046;DHT22;3564;53.326;10.356;2023-09-19T10:44:24;21.10;99.10
7046;DHT22;3564;53.326;10.356;2023-09-19T10:46:53;21.00;98.80
7046;DHT22;3564;53.326;10.356;2023-09-19T10:49:22;20.90;98.20
7046;DHT22;3564;53.326;10.356;2023-09-19T10:51:53;20.80;98.70
7046;DHT22;3564;53.326;10.356;2023-09-19T10:54:22;20.80;98.30
7046;DHT22;3564;53.326;10.356;2023-09-19T10:56:53;20.80;98.40
7046;DHT22;3564;53.326;10.356;2023-09-19T10:59:21;20.80;98.20
7046;DHT22;3564;53.326;10.356;2023-09-19T11:01:48;20.80;98.10
7046;DHT22;3564;53.326;10.356;2023-09-19T11:04:26;20.80;97.90
7046;DHT22;3564;53.326;10.356;2023-09-19T11:07:19;20.90;98.00
7046;DHT22;3564;53.326;10.356;2023-09-19T11:09:52;20.90;98.00
7046;DHT22;3564;53.326;10.356;2023-09-19T11:12:47;20.90;97.80
7046;DHT22;3564;53.326;10.356;2023-09-19T11:16:02;20.90;97.40
7046;DHT22;3564;53.326;10.356;2023-09-19T11:26:43;20.70;97.10
7046;DHT22;3564;53.326;10.356;2023-09-19T11:29:29;20.80;97.10
7046;DHT22;3564;53.326;10.356;2023-09-19T11:31:56;20.80;97.00
7046;DHT22;3564;53.326;10.356;2023-09-19T11:34:43;20.80;97.10
7046;DHT22;3564;53.326;10.356;2023-09-19T11:39:40;20.70;96.50
7046;DHT22;3564;53.326;10.356;2023-09-19T11:42:44;20.70;96.60
7046;DHT22;3564;53.326;10.356;2023-09-19T11:46:00;20.60;96.80
7046;DHT22;3564;53.326;10.356;2023-09-19T11:48:24;20.60;97.30
7046;DHT22;3564;53.326;10.356;2023-09-19T11:50:53;20.60;97.20
7046;DHT22;3564;53.326;10.356;2023-09-19T11:53:21;20.60;97.20
7046;DHT22;3564;53.326;10.356;2023-09-19T11:55:46;20.70;97.50
7046;DHT22;3564;53.326;10.356;2023-09-19T11:58:15;20.70;97.10
7046;DHT22;3564;53.326;10.356;2023-09-19T12:00:43;20.80;97.30
7046;DHT22;3564;53.326;10.356;2023-09-19T12:03:12;20.80;97.70
7046;DHT22;3564;53.326;10.356;2023-09-19T12:05:39;20.90;97.10
7046;DHT22;3564;53.326;10.356;2023-09-19T12:08:07;20.90;97.40
7046;DHT22;3564;53.326;10.356;2023-09-19T12:10:47;20.80;97.30
7046;DHT22;3564;53.326;10.356;2023-09-19T12:13:19;20.90;97.60
7046;DHT22;3564;53.326;10.356;2023-09-19T12:15:46;20.90;97.60
7046;DHT22;3564;53.326;10.356;2023-09-19T12:18:30;20.90;97.70
7046;DHT22;3564;53.326;10.356;2023-09-19T12:20:56;21.00;97.70
7046;DHT22;3564;53.326;10.356;2023-09-19T12:23:23;21.00;97.80
7046;DHT22;3564;53.326;10.356;2023-09-19T12:25:51;21.10;97.90
7046;DHT22;3564;53.326;10.356;2023-09-19T12:28:20;21.20;98.20
7046;DHT22;3564;53.326;10.356;2023-09-19T12:30:47;21.30;97.40
7046;DHT22;3564;53.326;10.356;2023-09-19T12:33:18;21.30;97.30
7046;DHT22;3564;53.326;10.356;2023-09-19T12:35:45;21.30;97.30
7046;DHT22;3564;53.326;10.356;2023-09-19T12:38:10;21.30;97.20
7046;DHT22;3564;53.326;10.356;2023-09-19T12:40:38;21.40;97.60
7046;DHT22;3564;53.326;10.356;2023-09-19T12:43:08;21.40;97.00
7046;DHT22;3564;53.326;10.356;2023-09-19T12:45:35;21.30;96.70
7046;DHT22;3564;53.326;10.356;2023-09-19T12:48:24;21.30;96.70
7046;DHT22;3564;53.326;10.356;2023-09-19T12:51:12;21.30;97.00
7046;DHT22;3564;53.326;10.356;2023-09-19T12:53:45;21.30;97.50
7046;DHT22;3564;53.326;10.356;2023-09-19T12:56:15;21.30;96.70
7046;DHT22;3564;53.326;10.356;2023-09-19T12:58:55;21.40;97.10
7046;DHT22;3564;53.326;10.356;2023-09-19T13:01:23;21.40;96.30
7046;DHT22;3564;53.326;10.356;2023-09-19T13:04:18;21.40;96.10
7046;DHT22;3564;53.326;10.356;2023-09-19T13:06:48;21.40;96.10
7046;DHT22;3564;53.326;10.356;2023-09-19T13:09:15;21.50;96.30
7046;DHT22;3564;53.326;10.356;2023-09-19T13:11:42;21.70;96.70
7046;DHT22;3564;53.326;10.356;2023-09-19T13:14:22;21.70;96.00
7046;DHT22;3564;53.326;10.356;2023-09-19T13:19:42;21.70;96.10
7046;DHT22;3564;53.326;10.356;2023-09-19T13:22:45;21.80;96.50
7046;DHT22;3564;53.326;10.356;2023-09-19T13:25:16;21.80;95.90
7046;DHT22;3564;53.326;10.356;2023-09-19T13:27:50;21.80;95.80
7046;DHT22;3564;53.326;10.356;2023-09-19T13:30:23;21.80;95.70
7046;DHT22;3564;53.326;10.356;2023-09-19T13:33:11;21.70;96.00
7046;DHT22;3564;53.326;10.356;2023-09-19T13:35:46;21.80;95.80
7046;DHT22;3564;53.326;10.356;2023-09-19T13:38:13;21.80;95.80
7046;DHT22;3564;53.326;10.356;2023-09-19T13:40:40;21.80;95.50
7046;DHT22;3564;53.326;10.356;2023-09-19T13:43:09;21.80;95.40
7046;DHT22;3564;53.326;10.356;2023-09-19T13:45:36;21.70;95.50
7046;DHT22;3564;53.326;10.356;2023-09-19T13:48:02;21.70;95.60
7046;DHT22;3564;53.326;10.356;2023-09-19T13:50:28;21.70;96.20
7046;DHT22;3564;53.326;10.356;2023-09-19T13:52:54;21.70;95.40
7046;DHT22;3564;53.326;10.356;2023-09-19T13:55:22;21.70;95.40
7046;DHT22;3564;53.326;10.356;2023-09-19T13:57:48;21.70;95.00
7046;DHT22;3564;53.326;10.356;2023-09-19T14:00:20;21.70;95.50
7046;DHT22;3564;53.326;10.356;2023-09-19T14:02:45;21.80;95.20
7046;DHT22;3564;53.326;10.356;2023-09-19T14:05:13;21.80;95.50
7046;DHT22;3564;53.326;10.356;2023-09-19T14:07:41;21.90;95.90
7046;DHT22;3564;53.326;10.356;2023-09-19T14:10:07;22.00;95.70
7046;DHT22;3564;53.326;10.356;2023-09-19T14:12:37;22.00;95.60
7046;DHT22;3564;53.326;10.356;2023-09-19T14:15:07;22.10;95.50
7046;DHT22;3564;53.326;10.356;2023-09-19T14:17:34;22.10;95.30
7046;DHT22;3564;53.326;10.356;2023-09-19T14:19:59;22.10;95.20
7046;DHT22;3564;53.326;10.356;2023-09-19T14:22:25;22.10;94.90
7046;DHT22;3564;53.326;10.356;2023-09-19T14:24:50;22.10;95.00
7046;DHT22;3564;53.326;10.356;2023-09-19T14:27:17;22.20;95.10
7046;DHT22;3564;53.326;10.356;2023-09-19T14:29:42;22.20;95.30
7046;DHT22;3564;53.326;10.356;2023-09-19T14:32:08;22.10;94.90
7046;DHT22;3564;53.326;10.356;2023-09-19T14:34:34;22.20;95.00
7046;DHT22;3564;53.326;10.356;2023-09-19T14:37:02;22.10;95.00
7046;DHT22;3564;53.326;10.356;2023-09-19T14:39:27;22.10;95.40
7046;DHT22;3564;53.326;10.356;2023-09-19T14:41:54;22.20;95.70
7046;DHT22;3564;53.326;10.356;2023-09-19T14:44:19;22.40;95.60
7046;DHT22;3564;53.326;10.356;2023-09-19T14:46:45;22.50;95.40
7046;DHT22;3564;53.326;10.356;2023-09-19T14:49:11;22.50;95.10
7046;DHT22;3564;53.326;10.356;2023-09-19T14:51:38;22.40;95.20
7046;DHT22;3564;53.326;10.356;2023-09-19T14:54:05;22.40;95.20
7046;DHT22;3564;53.326;10.356;2023-09-19T14:56:32;22.40;95.40
7046;DHT22;3564;53.326;10.356;2023-09-19T14:58:59;22.40;95.50
7046;DHT22;3564;53.326;10.356;2023-09-19T15:01:24;22.50;95.50
7046;DHT22;3564;53.326;10.356;2023-09-19T15:03:50;22.60;95.30
7046;DHT22;3564;53.326;10.356;2023-09-19T15:06:16;22.70;95.00
7046;DHT22;3564;53.326;10.356;2023-09-19T15:08:44;22.70;95.10
7046;DHT22;3564;53.326;10.356;2023-09-19T15:11:18;22.80;95.20
7046;DHT22;3564;53.326;10.356;2023-09-19T15:13:46;22.90;95.50
7046;DHT22;3564;53.326;10.356;2023-09-19T15:16:12;23.10;95.50
7046;DHT22;3564;53.326;10.356;2023-09-19T15:18:41;23.20;94.80
7046;DHT22;3564;53.326;10.356;2023-09-19T15:21:11;23.30;94.80
7046;DHT22;3564;53.326;10.356;2023-09-19T15:23:38;23.40;94.60
7046;DHT22;3564;53.326;10.356;2023-09-19T15:26:04;23.50;94.80
7046;DHT22;3564;53.326;10.356;2023-09-19T15:28:30;23.50;94.40
7046;DHT22;3564;53.326;10.356;2023-09-19T15:31:15;23.60;94.70
7046;DHT22;3564;53.326;10.356;2023-09-19T15:33:41;23.40;94.20
7046;DHT22;3564;53.326;10.356;2023-09-19T15:36:11;23.30;94.50
7046;DHT22;3564;53.326;10.356;2023-09-19T15:39:00;23.30;94.40
7046;DHT22;3564;53.326;10.356;2023-09-19T15:41:27;23.10;94.90
7046;DHT22;3564;53.326;10.356;2023-09-19T15:43:54;23.10;94.50
7046;DHT22;3564;53.326;10.356;2023-09-19T15:46:20;23.00;94.70
7046;DHT22;3564;53.326;10.356;2023-09-19T15:48:46;22.90;95.10
7046;DHT22;3564;53.326;10.356;2023-09-19T15:51:12;22.90;94.90
7046;DHT22;3564;53.326;10.356;2023-09-19T15:53:47;22.80;94.70
7046;DHT22;3564;53.326;10.356;2023-09-19T15:56:14;22.70;94.80
7046;DHT22;3564;53.326;10.356;2023-09-19T15:58:43;22.60;94.80
7046;DHT22;3564;53.326;10.356;2023-09-19T16:01:09;22.50;95.00
7046;DHT22;3564;53.326;10.356;2023-09-19T16:03:39;22.40;94.90
7046;DHT22;3564;53.326;10.356;2023-09-19T16:06:13;22.40;95.30
7046;DHT22;3564;53.326;10.356;2023-09-19T16:08:46;22.30;95.40
7046;DHT22;3564;53.326;10.356;2023-09-19T16:11:12;22.30;95.50
7046;DHT22;3564;53.326;10.356;2023-09-19T16:13:39;22.20;95.40
7046;DHT22;3564;53.326;10.356;2023-09-19T16:16:11;22.10;95.40
7046;DHT22;3564;53.326;10.356;2023-09-19T16:18:39;22.00;95.70
7046;DHT22;3564;53.326;10.356;2023-09-19T16:21:05;21.90;95.60
7046;DHT22;3564;53.326;10.356;2023-09-19T16:23:31;21.80;95.70
7046;DHT22;3564;53.326;10.356;2023-09-19T16:26:09;21.80;96.00
7046;DHT22;3564;53.326;10.356;2023-09-19T16:28:38;21.80;96.00